createdAt,value
2023-06-17T00:01:16.152Z,20.43
2023-06-17T00:03:44.493Z,20.41
2023-06-17T00:06:11.908Z,20.38
2023-06-17T00:08:39.043Z,20.37
2023-06-17T00:11:06.346Z,20.43
2023-06-17T00:13:33.890Z,20.26
2023-06-17T00:16:01.928Z,20.14
2023-06-17T00:18:29.926Z,20.13
2023-06-17T00:20:59.185Z,20.07
2023-06-17T00:23:26.767Z,20.07
2023-06-17T00:25:53.929Z,20.30
2023-06-17T00:28:21.101Z,20.33
2023-06-17T00:30:48.911Z,20.36
2023-06-17T00:33:16.720Z,20.29
2023-06-17T00:35:45.245Z,20.27
2023-06-17T00:38:12.552Z,20.26
2023-06-17T00:40:39.654Z,20.21
2023-06-17T00:43:06.761Z,19.84
2023-06-17T00:45:40.505Z,19.71
2023-06-17T00:48:10.023Z,19.46
2023-06-17T00:50:38.176Z,19.52
2023-06-17T00:53:06.654Z,19.65
2023-06-17T00:55:35.050Z,19.73
2023-06-17T00:58:02.598Z,19.71
2023-06-17T01:00:29.636Z,19.99
2023-06-17T01:02:57.897Z,20.05
2023-06-17T01:05:26.375Z,20.21
2023-06-17T01:07:59.833Z,20.41
2023-06-17T01:10:39.884Z,20.35
2023-06-17T01:13:07.704Z,20.01
2023-06-17T01:15:38.034Z,19.84
2023-06-17T01:18:08.355Z,19.79
2023-06-17T01:20:37.392Z,19.38
2023-06-17T01:23:06.733Z,19.56
2023-06-17T01:25:35.801Z,19.49
2023-06-17T01:28:21.269Z,19.62
2023-06-17T01:30:49.383Z,19.48
2023-06-17T01:33:17.152Z,19.49
2023-06-17T01:35:56.086Z,19.35
2023-06-17T01:38:44.718Z,19.28
2023-06-17T01:41:18.377Z,19.22
2023-06-17T01:43:46.624Z,19.13
2023-06-17T01:46:14.602Z,19.13
2023-06-17T01:48:42.694Z,18.80
2023-06-17T01:51:10.043Z,18.92
2023-06-17T01:53:37.033Z,18.98
2023-06-17T01:56:04.239Z,18.92
2023-06-17T01:58:31.229Z,18.95
2023-06-17T02:00:58.932Z,19.07
2023-06-17T02:03:26.020Z,19.21
2023-06-17T02:05:53.144Z,19.37
2023-06-17T02:08:20.291Z,19.39
2023-06-17T02:10:47.284Z,18.72
2023-06-17T02:13:14.698Z,18.62
2023-06-17T02:15:43.977Z,18.55
2023-06-17T02:18:13.748Z,18.36
2023-06-17T02:20:42.539Z,18.32
2023-06-17T02:23:09.577Z,18.37
2023-06-17T02:25:40.775Z,18.43
2023-06-17T02:28:08.159Z,18.50
2023-06-17T02:30:35.590Z,18.77
2023-06-17T02:33:02.748Z,18.99
2023-06-17T02:35:30.265Z,19.18
2023-06-17T02:37:58.357Z,19.22
2023-06-17T02:40:25.397Z,19.04
2023-06-17T02:42:53.242Z,19.07
2023-06-17T02:45:20.391Z,19.07
2023-06-17T02:47:48.609Z,19.07
2023-06-17T02:50:15.989Z,18.93
2023-06-17T02:52:43.036Z,19.11
2023-06-17T02:55:10.928Z,19.04
2023-06-17T02:57:38.351Z,19.05
2023-06-17T03:00:07.489Z,18.00
2023-06-17T03:02:34.552Z,18.32
2023-06-17T03:05:01.709Z,18.15
2023-06-17T03:07:37.544Z,18.58
2023-06-17T03:10:04.911Z,18.66
2023-06-17T03:12:37.723Z,19.02
2023-06-17T03:15:05.869Z,19.06
2023-06-17T03:17:33.028Z,19.04
2023-06-17T03:20:01.357Z,19.21
2023-06-17T03:22:30.903Z,19.37
2023-06-17T03:24:57.925Z,19.44
2023-06-17T03:27:25.274Z,19.61
2023-06-17T03:29:52.758Z,19.51
2023-06-17T03:32:19.725Z,19.56
2023-06-17T03:34:47.501Z,19.22
2023-06-17T03:37:15.521Z,19.26
2023-06-17T03:39:43.812Z,19.54
2023-06-17T03:42:16.053Z,19.22
2023-06-17T03:44:43.266Z,19.12
2023-06-17T03:47:10.930Z,18.95
2023-06-17T03:49:38.859Z,18.73
2023-06-17T03:52:06.889Z,19.06
2023-06-17T03:54:33.994Z,19.11
2023-06-17T03:57:01.243Z,19.25
2023-06-17T03:59:29.541Z,19.20
2023-06-17T04:01:56.717Z,18.98
2023-06-17T04:04:23.962Z,18.95
2023-06-17T04:06:51.652Z,18.53
2023-06-17T04:09:20.117Z,18.18
2023-06-17T04:11:50.952Z,18.19
2023-06-17T04:14:18.114Z,18.27
2023-06-17T04:16:50.454Z,18.38
2023-06-17T04:19:18.875Z,18.41
2023-06-17T04:21:46.598Z,18.59
2023-06-17T04:24:13.844Z,18.82
2023-06-17T04:26:44.315Z,19.08
2023-06-17T04:29:12.027Z,18.84
2023-06-17T04:31:41.650Z,18.74
2023-06-17T04:34:13.808Z,19.07
2023-06-17T04:36:41.057Z,19.19
2023-06-17T04:39:11.659Z,19.37
2023-06-17T04:41:39.293Z,19.57
2023-06-17T04:44:06.469Z,19.54
2023-06-17T04:46:34.799Z,19.48
2023-06-17T04:49:03.800Z,19.70
2023-06-17T04:51:31.022Z,19.82
2023-06-17T04:53:58.077Z,19.97
2023-06-17T04:56:28.060Z,19.85
2023-06-17T04:58:55.313Z,19.78
2023-06-17T05:01:23.434Z,20.02
2023-06-17T05:03:51.799Z,19.70
2023-06-17T05:06:19.975Z,19.67
2023-06-17T05:08:49.600Z,19.82
2023-06-17T05:11:18.759Z,20.00
2023-06-17T05:13:46.677Z,20.07
2023-06-17T05:16:13.701Z,20.01
2023-06-17T05:18:42.270Z,19.99
2023-06-17T05:21:09.382Z,19.69
2023-06-17T05:23:37.055Z,19.68
2023-06-17T05:26:05.496Z,19.79
2023-06-17T05:28:33.066Z,19.77
2023-06-17T05:31:00.297Z,19.81
2023-06-17T05:33:27.353Z,19.96
2023-06-17T05:35:55.694Z,19.76
2023-06-17T05:38:22.727Z,19.98
2023-06-17T05:40:49.929Z,19.95
2023-06-17T05:43:16.942Z,20.02
2023-06-17T05:45:44.152Z,20.01
2023-06-17T05:48:14.638Z,20.06
2023-06-17T05:50:41.663Z,20.21
2023-06-17T05:53:08.880Z,20.02
2023-06-17T05:55:35.948Z,19.86
2023-06-17T05:58:03.458Z,20.09
2023-06-17T06:00:34.456Z,19.69
2023-06-17T06:03:01.622Z,19.58
2023-06-17T06:05:28.754Z,19.53
2023-06-17T06:07:55.977Z,19.41
2023-06-17T06:10:23.388Z,19.40
2023-06-17T06:12:55.992Z,19.47
2023-06-17T06:15:24.752Z,19.42
2023-06-17T06:17:51.831Z,19.66
2023-06-17T06:20:19.632Z,19.78
2023-06-17T06:22:47.068Z,19.13
2023-06-17T06:25:14.102Z,19.03
2023-06-17T06:27:41.142Z,18.82
2023-06-17T06:30:09.557Z,18.61
2023-06-17T06:32:40.553Z,19.01
2023-06-17T06:35:07.918Z,18.90
2023-06-17T06:37:35.240Z,19.14
2023-06-17T06:40:02.705Z,18.80
2023-06-17T06:42:32.789Z,19.21
2023-06-17T06:45:16.814Z,19.41
2023-06-17T06:47:45.541Z,19.53
2023-06-17T06:50:12.944Z,19.46
2023-06-17T06:52:40.687Z,19.44
2023-06-17T06:55:08.374Z,19.43
2023-06-17T06:57:37.172Z,19.59
2023-06-17T07:00:10.204Z,19.68
2023-06-17T07:02:39.238Z,19.77
2023-06-17T07:05:07.077Z,19.73
2023-06-17T07:07:42.806Z,19.88
2023-06-17T07:10:10.479Z,19.72
2023-06-17T07:12:37.916Z,19.66
2023-06-17T07:15:06.648Z,19.62
2023-06-17T07:17:34.080Z,19.72
2023-06-17T07:20:04.185Z,19.45
2023-06-17T07:22:31.590Z,19.38
2023-06-17T07:24:58.801Z,19.14
2023-06-17T07:27:26.098Z,19.37
2023-06-17T07:29:53.431Z,19.66
2023-06-17T07:32:20.480Z,19.81
2023-06-17T07:34:50.049Z,19.84
2023-06-17T07:37:17.147Z,19.74
2023-06-17T07:39:47.538Z,19.94
2023-06-17T07:42:17.917Z,19.84
2023-06-17T07:44:47.724Z,20.02
2023-06-17T07:47:14.798Z,20.00
2023-06-17T07:49:41.840Z,19.99
2023-06-17T07:52:08.902Z,20.39
2023-06-17T07:54:36.950Z,20.39
2023-06-17T07:57:04.854Z,20.55
2023-06-17T07:59:32.331Z,20.79
2023-06-17T08:01:59.700Z,20.75
2023-06-17T08:04:26.941Z,20.96
2023-06-17T08:06:53.967Z,21.10
2023-06-17T08:09:21.154Z,21.29
2023-06-17T08:11:49.184Z,21.42
2023-06-17T08:14:17.533Z,21.65
2023-06-17T08:16:45.072Z,21.52
2023-06-17T08:19:13.094Z,21.41
2023-06-17T08:21:43.375Z,21.69
2023-06-17T08:24:19.600Z,21.93
2023-06-17T08:26:47.153Z,22.13
2023-06-17T08:29:15.125Z,22.30
2023-06-17T08:31:43.818Z,22.49
2023-06-17T08:34:12.281Z,22.49
2023-06-17T08:36:50.918Z,22.69
2023-06-17T08:39:20.306Z,22.68
2023-06-17T08:41:49.847Z,22.61
2023-06-17T08:44:17.584Z,22.80
2023-06-17T08:46:46.165Z,22.89
2023-06-17T08:49:14.409Z,22.73
2023-06-17T08:51:42.144Z,22.88
2023-06-17T08:54:10.831Z,22.73
2023-06-17T08:56:38.476Z,22.69
2023-06-17T08:59:06.046Z,22.67
2023-06-17T09:01:34.017Z,22.80
2023-06-17T09:04:03.135Z,22.76
2023-06-17T09:06:31.244Z,22.52
2023-06-17T09:08:59.131Z,22.64
2023-06-17T09:11:31.529Z,22.81
2023-06-17T09:27:31.524Z,23.02
2023-06-17T09:30:10.668Z,23.12
2023-06-17T09:32:44.166Z,23.21
2023-06-17T09:35:18.540Z,23.10
2023-06-17T09:40:32.656Z,23.25
2023-06-17T09:43:20.951Z,23.35
2023-06-17T09:45:56.384Z,23.34
2023-06-17T09:48:26.120Z,23.39
2023-06-17T09:50:57.683Z,23.43
2023-06-17T09:53:30.563Z,23.37
2023-06-17T09:56:00.014Z,23.43
2023-06-17T09:58:34.141Z,23.50
2023-06-17T10:01:07.162Z,23.34
2023-06-17T10:03:35.304Z,23.66
2023-06-17T10:06:10.023Z,23.97
2023-06-17T10:08:49.913Z,24.06
2023-06-17T10:11:21.459Z,24.20
2023-06-17T10:14:00.521Z,24.08
2023-06-17T10:16:32.116Z,24.01
2023-06-17T10:19:02.357Z,23.96
2023-06-17T10:21:30.729Z,24.16
2023-06-17T10:24:01.245Z,24.16
2023-06-17T10:26:30.087Z,24.11
2023-06-17T10:29:08.437Z,24.08
2023-06-17T10:31:39.352Z,23.87
2023-06-17T10:34:09.348Z,23.82
2023-06-17T10:36:37.228Z,23.82
2023-06-17T10:39:13.164Z,23.84
2023-06-17T10:41:40.158Z,23.80
2023-06-17T10:44:29.327Z,23.65
2023-06-17T10:46:57.685Z,23.66
2023-06-17T10:49:25.031Z,23.82
2023-06-17T10:51:58.850Z,23.86
2023-06-17T10:54:34.040Z,24.03
2023-06-17T10:57:03.041Z,24.12
2023-06-17T10:59:33.573Z,23.91
2023-06-17T11:02:08.424Z,24.07
2023-06-17T11:04:38.211Z,24.24
2023-06-17T11:07:06.127Z,24.24
2023-06-17T11:09:34.683Z,24.47
2023-06-17T11:12:03.603Z,24.40
2023-06-17T11:14:32.772Z,24.39
2023-06-17T11:16:59.933Z,24.71
2023-06-17T11:19:27.161Z,24.76
2023-06-17T11:22:08.517Z,25.03
2023-06-17T11:24:36.889Z,25.14
2023-06-17T11:27:07.089Z,24.94
2023-06-17T11:29:34.359Z,25.01
2023-06-17T11:32:03.190Z,24.87
2023-06-17T11:34:33.258Z,24.86
2023-06-17T11:37:03.222Z,24.64
2023-06-17T11:39:32.135Z,24.49
2023-06-17T11:42:04.023Z,24.28
2023-06-17T11:44:36.026Z,23.97
2023-06-17T11:47:08.285Z,23.80
2023-06-17T11:49:36.604Z,23.69
2023-06-17T11:52:12.289Z,23.26
2023-06-17T11:54:51.837Z,23.24
2023-06-17T11:57:23.852Z,23.05
2023-06-17T11:59:52.108Z,22.96
2023-06-17T12:02:20.265Z,22.94
2023-06-17T12:04:48.034Z,22.79
2023-06-17T12:07:15.668Z,22.60
2023-06-17T12:09:54.483Z,22.73
2023-06-17T12:12:37.024Z,22.81
2023-06-17T12:15:15.086Z,22.78
2023-06-17T12:17:44.186Z,22.63
2023-06-17T12:20:19.226Z,22.49
2023-06-17T12:22:47.985Z,22.54
2023-06-17T12:25:15.233Z,22.30
2023-06-17T12:27:44.070Z,22.17
2023-06-17T12:30:15.216Z,22.23
2023-06-17T12:32:44.151Z,22.23
2023-06-17T12:35:13.160Z,22.11
2023-06-17T12:37:42.484Z,22.17
2023-06-17T12:40:10.558Z,22.10
2023-06-17T12:42:38.036Z,22.03
2023-06-17T12:45:06.822Z,21.88
2023-06-17T12:47:34.109Z,21.95
2023-06-17T12:50:01.457Z,21.67
2023-06-17T12:52:31.373Z,21.34
2023-06-17T12:55:02.192Z,21.42
2023-06-17T12:57:32.962Z,21.39
2023-06-17T13:00:01.357Z,21.26
2023-06-17T13:05:55.016Z,21.30
2023-06-17T13:08:22.167Z,21.08
2023-06-17T13:10:49.480Z,21.22
2023-06-17T13:13:16.710Z,21.08
2023-06-17T13:15:44.076Z,21.21
2023-06-17T13:18:11.305Z,21.41
2023-06-17T13:20:38.355Z,21.22
2023-06-17T13:23:05.708Z,20.69
2023-06-17T13:25:32.897Z,20.46
2023-06-17T13:28:05.889Z,20.57
2023-06-17T13:30:33.266Z,20.78
2023-06-17T13:33:00.314Z,20.88
2023-06-17T13:35:27.330Z,20.89
2023-06-17T13:37:56.104Z,21.11
2023-06-17T13:40:23.952Z,21.34
2023-06-17T13:42:51.308Z,21.37
2023-06-17T13:45:18.637Z,21.26
2023-06-17T13:47:46.295Z,21.32
2023-06-17T13:50:13.453Z,21.49
2023-06-17T13:52:40.473Z,21.40
2023-06-17T13:55:08.266Z,21.51
2023-06-17T13:57:35.285Z,21.51
2023-06-17T14:00:02.420Z,21.46
2023-06-17T14:02:33.541Z,21.34
2023-06-17T14:05:02.067Z,21.15
2023-06-17T14:07:30.902Z,21.23
2023-06-17T14:09:58.285Z,21.44
2023-06-17T14:12:25.594Z,21.57
2023-06-17T14:14:53.637Z,21.45
2023-06-17T14:17:21.104Z,21.63
2023-06-17T14:19:48.436Z,21.68
2023-06-17T14:22:15.653Z,21.51
2023-06-17T14:24:43.022Z,21.57
2023-06-17T14:27:34.575Z,21.35
2023-06-17T14:30:03.476Z,21.35
2023-06-17T14:32:34.183Z,21.37
2023-06-17T14:35:01.612Z,21.41
2023-06-17T14:37:33.662Z,21.35
2023-06-17T14:40:00.880Z,21.52
2023-06-17T14:42:29.361Z,21.58
2023-06-17T14:44:56.460Z,21.73
2023-06-17T14:47:24.242Z,21.60
2023-06-17T14:49:51.329Z,21.67
2023-06-17T14:52:18.569Z,21.79
2023-06-17T14:54:45.890Z,21.88
2023-06-17T14:57:13.645Z,21.84
2023-06-17T14:59:41.156Z,21.72
2023-06-17T15:02:36.734Z,21.65
2023-06-17T15:05:03.827Z,21.62
2023-06-17T15:07:31.019Z,21.57
2023-06-17T15:09:58.024Z,21.51
2023-06-17T15:12:25.039Z,21.48
2023-06-17T15:14:54.672Z,21.40
2023-06-17T15:17:22.054Z,21.48
2023-06-17T15:19:49.128Z,21.35
2023-06-17T15:22:16.313Z,21.33
2023-06-17T15:24:43.369Z,20.93
2023-06-17T15:27:10.554Z,21.02
2023-06-17T15:29:37.642Z,21.05
2023-06-17T15:32:05.056Z,21.16
2023-06-17T15:34:32.060Z,21.25
2023-06-17T15:36:59.052Z,21.31
2023-06-17T15:39:28.955Z,21.33
2023-06-17T15:41:56.175Z,21.35
2023-06-17T15:44:23.318Z,21.54
2023-06-17T15:46:51.226Z,21.60
2023-06-17T15:49:18.972Z,21.63
2023-06-17T15:51:46.036Z,21.67
2023-06-17T15:54:14.359Z,21.68
2023-06-17T15:56:47.143Z,21.60
2023-06-17T15:59:14.520Z,21.45
2023-06-17T16:01:41.616Z,21.52
2023-06-17T16:04:34.310Z,21.58
2023-06-17T16:07:03.962Z,21.48
2023-06-17T16:09:35.273Z,21.32
2023-06-17T16:12:04.100Z,21.44
2023-06-17T16:14:36.922Z,21.34
2023-06-17T16:17:06.841Z,21.36
2023-06-17T16:19:34.329Z,21.26
2023-06-17T16:22:03.328Z,21.07
2023-06-17T16:24:31.719Z,21.28
2023-06-17T16:26:59.702Z,21.26
2023-06-17T16:29:26.826Z,21.35
2023-06-17T16:31:53.876Z,21.30
2023-06-17T16:34:21.075Z,21.33
2023-06-17T16:36:48.089Z,21.45
2023-06-17T16:39:15.170Z,21.30
2023-06-17T16:41:42.289Z,21.23
2023-06-17T16:44:09.874Z,21.34
2023-06-17T16:46:37.309Z,21.36
2023-06-17T16:49:04.546Z,21.18
2023-06-17T16:51:32.511Z,21.20
2023-06-17T16:54:01.901Z,21.11
2023-06-17T16:56:31.108Z,21.15
2023-06-17T16:58:58.471Z,20.97
2023-06-17T17:01:25.768Z,20.96
2023-06-17T17:03:52.901Z,20.94
2023-06-17T17:06:19.976Z,21.02
2023-06-17T17:08:51.027Z,21.22
2023-06-17T17:11:18.085Z,21.33
2023-06-17T17:13:49.259Z,21.07
2023-06-17T17:16:17.548Z,20.85
2023-06-17T17:18:44.690Z,20.97
2023-06-17T17:21:11.843Z,20.63
2023-06-17T17:23:41.688Z,20.93
2023-06-17T17:26:10.287Z,20.89
2023-06-17T17:28:37.465Z,20.74
2023-06-17T17:31:04.521Z,20.89
2023-06-17T17:33:33.927Z,20.96
2023-06-17T17:36:01.691Z,20.37
2023-06-17T17:38:28.752Z,20.09
2023-06-17T17:40:55.783Z,20.10
2023-06-17T17:43:22.814Z,20.26
2023-06-17T17:45:49.907Z,19.97
2023-06-17T17:48:17.354Z,20.09
2023-06-17T17:50:44.528Z,20.13
2023-06-17T17:53:11.938Z,20.05
2023-06-17T17:55:39.024Z,20.10
2023-06-17T17:58:06.066Z,20.16
2023-06-17T18:00:33.195Z,19.80
2023-06-17T18:03:00.545Z,19.42
2023-06-17T18:05:27.624Z,19.26
2023-06-17T18:07:54.724Z,19.47
2023-06-17T18:10:22.140Z,19.55
2023-06-17T18:12:49.504Z,19.68
2023-06-17T18:15:16.678Z,19.83
2023-06-17T18:17:43.716Z,19.89
2023-06-17T18:20:11.228Z,20.01
2023-06-17T18:22:38.792Z,19.88
2023-06-17T18:25:06.743Z,19.98
2023-06-17T18:27:36.272Z,19.95
2023-06-17T18:30:05.049Z,19.82
2023-06-17T18:32:36.858Z,19.84
2023-06-17T18:35:04.078Z,20.05
2023-06-17T18:37:33.112Z,20.19
2023-06-17T18:40:02.516Z,20.13
2023-06-17T18:42:33.733Z,20.12
2023-06-17T18:45:01.346Z,20.01
2023-06-17T18:47:32.235Z,19.94
2023-06-17T18:50:00.140Z,19.73
2023-06-17T18:52:27.562Z,19.94
2023-06-17T18:54:54.897Z,19.85
2023-06-17T18:57:23.488Z,19.97
2023-06-17T18:59:52.569Z,19.84
2023-06-17T19:02:21.409Z,19.97
2023-06-17T19:04:48.575Z,20.00
2023-06-17T19:07:15.741Z,19.95
2023-06-17T19:09:42.782Z,19.87
2023-06-17T19:12:10.464Z,19.98
2023-06-17T19:14:37.886Z,19.72
2023-06-17T19:17:05.497Z,19.89
2023-06-17T19:19:32.730Z,19.83
2023-06-17T19:21:59.866Z,19.67
2023-06-17T19:24:26.994Z,19.74
2023-06-17T19:26:54.128Z,19.75
2023-06-17T19:29:21.395Z,19.73
2023-06-17T19:31:48.601Z,19.63
2023-06-17T19:34:15.653Z,19.62
2023-06-17T19:36:42.739Z,19.68
2023-06-17T19:39:09.758Z,19.64
2023-06-17T19:41:37.174Z,19.75
2023-06-17T19:44:06.156Z,19.74
2023-06-17T19:46:33.725Z,19.81
2023-06-17T19:49:00.887Z,19.74
2023-06-17T19:51:28.615Z,19.64
2023-06-17T19:53:57.029Z,19.88
2023-06-17T19:56:24.867Z,19.85
2023-06-17T19:58:52.085Z,19.65
2023-06-17T20:01:19.979Z,19.62
2023-06-17T20:03:47.268Z,19.58
2023-06-17T20:06:14.892Z,19.61
2023-06-17T20:08:42.399Z,19.40
2023-06-17T20:11:09.573Z,19.63
2023-06-17T20:13:36.881Z,19.43
2023-06-17T20:16:04.763Z,19.74
2023-06-17T20:18:31.849Z,19.77
2023-06-17T20:20:58.901Z,19.87
2023-06-17T20:23:27.966Z,19.62
2023-06-17T20:25:55.506Z,19.65
2023-06-17T20:28:22.480Z,19.73
2023-06-17T20:30:49.564Z,19.70
2023-06-17T20:33:16.637Z,19.85
2023-06-17T20:35:43.840Z,19.75
2023-06-17T20:38:10.880Z,19.75
2023-06-17T20:40:38.259Z,19.64
2023-06-17T20:43:05.200Z,19.78
2023-06-17T20:45:32.484Z,19.84
2023-06-17T20:47:59.760Z,19.76
2023-06-17T20:50:27.956Z,19.72
2023-06-17T20:52:57.409Z,19.74
2023-06-17T20:55:29.999Z,19.45
2023-06-17T20:57:57.445Z,19.78
2023-06-17T21:00:24.614Z,19.65
2023-06-17T21:02:51.983Z,19.66
2023-06-17T21:05:19.283Z,19.71
2023-06-17T21:07:46.523Z,19.53
2023-06-17T21:10:14.319Z,19.53
2023-06-17T21:12:41.650Z,19.33
2023-06-17T21:15:09.321Z,19.38
2023-06-17T21:17:36.421Z,19.30
2023-06-17T21:20:03.954Z,18.93
2023-06-17T21:22:31.332Z,19.24
2023-06-17T21:24:58.403Z,19.24
2023-06-17T21:27:25.495Z,19.28
2023-06-17T21:29:52.960Z,19.34
2023-06-17T21:32:20.100Z,19.20
2023-06-17T21:34:47.672Z,19.25
2023-06-17T21:37:14.870Z,19.24
2023-06-17T21:39:42.324Z,19.08
2023-06-17T21:42:09.443Z,19.04
2023-06-17T21:44:36.730Z,19.14
2023-06-17T21:47:04.171Z,19.06
2023-06-17T21:49:31.398Z,18.98
2023-06-17T21:51:58.472Z,18.88
2023-06-17T21:54:25.549Z,18.83
2023-06-17T21:56:52.543Z,18.77
2023-06-17T21:59:19.538Z,18.79
2023-06-17T22:01:47.953Z,18.81
2023-06-17T22:04:14.991Z,18.58
2023-06-17T22:06:42.128Z,18.68
2023-06-17T22:09:09.181Z,18.56
2023-06-17T22:11:36.213Z,18.72
2023-06-17T22:14:03.358Z,18.86
2023-06-17T22:16:30.565Z,18.79
2023-06-17T22:18:57.692Z,18.78
2023-06-17T22:21:24.760Z,18.89
2023-06-17T22:23:51.795Z,18.95
2023-06-17T22:26:18.947Z,18.80
2023-06-17T22:28:46.079Z,18.78
2023-06-17T22:31:13.117Z,18.77
2023-06-17T22:33:40.157Z,18.80
2023-06-17T22:36:07.420Z,18.77
2023-06-17T22:38:34.410Z,18.88
2023-06-17T22:41:01.629Z,18.78
2023-06-17T22:43:29.163Z,18.62
2023-06-17T22:45:56.163Z,18.67
2023-06-17T22:48:23.172Z,18.60
2023-06-17T22:50:50.577Z,18.68
2023-06-17T22:53:17.844Z,18.72
2023-06-17T22:55:44.846Z,18.73
2023-06-17T22:58:11.909Z,18.75
2023-06-17T23:00:41.560Z,18.72
2023-06-17T23:03:09.222Z,18.70
2023-06-17T23:05:36.326Z,18.55
2023-06-17T23:08:04.634Z,18.81
2023-06-17T23:10:31.768Z,18.79
2023-06-17T23:12:58.802Z,18.31
2023-06-17T23:15:25.827Z,18.31
2023-06-17T23:17:52.939Z,18.24
2023-06-17T23:20:20.235Z,18.29
2023-06-17T23:22:47.492Z,18.24
2023-06-17T23:25:15.630Z,18.12
2023-06-17T23:27:44.542Z,18.20
2023-06-17T23:30:14.809Z,17.98
2023-06-17T23:32:42.622Z,17.97
2023-06-17T23:35:10.283Z,18.16
2023-06-17T23:37:37.535Z,18.34
2023-06-17T23:40:05.182Z,18.13
2023-06-17T23:42:32.725Z,18.02
2023-06-17T23:45:00.598Z,17.91
2023-06-17T23:47:27.793Z,17.94
2023-06-17T23:49:55.064Z,17.79
2023-06-17T23:52:22.174Z,17.86
2023-06-17T23:54:49.249Z,18.08
